sensor_id;sensor_type;location;lat;lon;timestamp;temperature;humidity
28023;DHT22;67403;50.104;8.758;2023-04-24T00:01:33;12.00;99.90
28023;DHT22;67403;50.104;8.758;2023-04-24T00:04:03;12.00;99.90
28023;DHT22;67403;50.104;8.758;2023-04-24T00:06:31;12.10;99.90
28023;DHT22;67403;50.104;8.758;2023-04-24T00:08:59;12.00;99.90
28023;DHT22;67403;50.104;8.758;2023-04-24T00:11:26;12.10;99.90
28023;DHT22;67403;50.104;8.758;2023-04-24T00:13:53;12.10;99.90
28023;DHT22;67403;50.104;8.758;2023-04-24T00:16:20;12.10;99.90
28023;DHT22;67403;50.104;8.758;2023-04-24T00:18:47;12.10;99.90
28023;DHT22;67403;50.104;8.758;2023-04-24T00:21:15;12.10;99.90
28023;DHT22;67403;50.104;8.758;2023-04-24T00:23:43;12.00;99.90
28023;DHT22;67403;50.104;8.758;2023-04-24T00:26:10;12.10;99.90
28023;DHT22;67403;50.104;8.758;2023-04-24T00:28:37;12.00;99.90
28023;DHT22;67403;50.104;8.758;2023-04-24T00:31:04;12.00;99.90
28023;DHT22;67403;50.104;8.758;2023-04-24T00:33:31;12.00;99.90
28023;DHT22;67403;50.104;8.758;2023-04-24T00:35:58;12.00;99.90
28023;DHT22;67403;50.104;8.758;2023-04-24T00:38:26;12.10;99.90
28023;DHT22;67403;50.104;8.758;2023-04-24T00:40:53;12.10;99.90
28023;DHT22;67403;50.104;8.758;2023-04-24T00:43:20;12.10;99.90
28023;DHT22;67403;50.104;8.758;2023-04-24T00:45:47;12.10;99.90
28023;DHT22;67403;50.104;8.758;2023-04-24T00:48:14;12.10;99.90
28023;DHT22;67403;50.104;8.758;2023-04-24T00:50:42;12.00;99.90
28023;DHT22;67403;50.104;8.758;2023-04-24T00:53:09;12.00;99.90
28023;DHT22;67403;50.104;8.758;2023-04-24T00:55:37;12.00;99.90
28023;DHT22;67403;50.104;8.758;2023-04-24T00:58:04;12.10;99.90
28023;DHT22;67403;50.104;8.758;2023-04-24T01:00:31;12.10;99.90
28023;DHT22;67403;50.104;8.758;2023-04-24T01:03:01;12.00;99.90
28023;DHT22;67403;50.104;8.758;2023-04-24T01:05:30;12.10;99.90
28023;DHT22;67403;50.104;8.758;2023-04-24T01:07:58;12.10;99.90
28023;DHT22;67403;50.104;8.758;2023-04-24T01:10:27;12.00;99.90
28023;DHT22;67403;50.104;8.758;2023-04-24T01:12:58;12.00;99.90
28023;DHT22;67403;50.104;8.758;2023-04-24T01:15:24;12.00;99.90
28023;DHT22;67403;50.104;8.758;2023-04-24T01:17:51;12.00;99.90
28023;DHT22;67403;50.104;8.758;2023-04-24T01:20:19;12.00;99.90
28023;DHT22;67403;50.104;8.758;2023-04-24T01:22:48;12.00;99.90
28023;DHT22;67403;50.104;8.758;2023-04-24T01:25:14;12.00;99.90
28023;DHT22;67403;50.104;8.758;2023-04-24T01:27:42;11.90;99.90
28023;DHT22;67403;50.104;8.758;2023-04-24T01:30:10;11.90;99.90
28023;DHT22;67403;50.104;8.758;2023-04-24T01:32:37;11.90;99.90
28023;DHT22;67403;50.104;8.758;2023-04-24T01:35:06;11.90;99.90
28023;DHT22;67403;50.104;8.758;2023-04-24T01:37:33;11.90;99.90
28023;DHT22;67403;50.104;8.758;2023-04-24T01:40:01;11.90;99.90
28023;DHT22;67403;50.104;8.758;2023-04-24T01:42:29;11.90;99.90
28023;DHT22;67403;50.104;8.758;2023-04-24T01:44:57;11.90;99.90
28023;DHT22;67403;50.104;8.758;2023-04-24T01:47:24;11.90;99.90
28023;DHT22;67403;50.104;8.758;2023-04-24T01:49:51;11.90;99.90
28023;DHT22;67403;50.104;8.758;2023-04-24T01:52:18;11.90;99.90
28023;DHT22;67403;50.104;8.758;2023-04-24T01:54:45;11.90;99.90
28023;DHT22;67403;50.104;8.758;2023-04-24T01:57:13;12.00;99.90
28023;DHT22;67403;50.104;8.758;2023-04-24T01:59:40;11.90;99.90
28023;DHT22;67403;50.104;8.758;2023-04-24T02:02:07;12.00;99.90
28023;DHT22;67403;50.104;8.758;2023-04-24T02:04:34;12.00;99.90
28023;DHT22;67403;50.104;8.758;2023-04-24T02:07:01;11.90;99.90
28023;DHT22;67403;50.104;8.758;2023-04-24T02:09:28;11.90;99.90
28023;DHT22;67403;50.104;8.758;2023-04-24T02:11:55;11.90;99.90
28023;DHT22;67403;50.104;8.758;2023-04-24T02:14:23;11.90;99.90
28023;DHT22;67403;50.104;8.758;2023-04-24T02:16:50;11.90;99.90
28023;DHT22;67403;50.104;8.758;2023-04-24T02:19:17;11.90;99.90
28023;DHT22;67403;50.104;8.758;2023-04-24T02:21:43;11.90;99.90
28023;DHT22;67403;50.104;8.758;2023-04-24T02:24:10;11.90;99.90
28023;DHT22;67403;50.104;8.758;2023-04-24T02:26:37;11.90;99.90
28023;DHT22;67403;50.104;8.758;2023-04-24T02:29:04;11.90;99.90
28023;DHT22;67403;50.104;8.758;2023-04-24T02:31:32;11.80;99.90
28023;DHT22;67403;50.104;8.758;2023-04-24T02:33:59;11.70;99.90
28023;DHT22;67403;50.104;8.758;2023-04-24T02:36:26;11.70;99.90
28023;DHT22;67403;50.104;8.758;2023-04-24T02:38:53;11.60;99.90
28023;DHT22;67403;50.104;8.758;2023-04-24T02:41:20;11.60;99.90
28023;DHT22;67403;50.104;8.758;2023-04-24T02:43:47;11.50;99.90
28023;DHT22;67403;50.104;8.758;2023-04-24T02:46:14;11.40;99.90
28023;DHT22;67403;50.104;8.758;2023-04-24T02:48:42;11.40;99.90
28023;DHT22;67403;50.104;8.758;2023-04-24T02:51:09;11.40;99.90
28023;DHT22;67403;50.104;8.758;2023-04-24T02:53:36;11.40;99.90
28023;DHT22;67403;50.104;8.758;2023-04-24T02:56:03;11.30;99.90
28023;DHT22;67403;50.104;8.758;2023-04-24T02:58:30;11.30;99.90
28023;DHT22;67403;50.104;8.758;2023-04-24T03:00:57;11.20;99.90
28023;DHT22;67403;50.104;8.758;2023-04-24T03:03:24;11.20;99.90
28023;DHT22;67403;50.104;8.758;2023-04-24T03:05:52;11.20;99.90
28023;DHT22;67403;50.104;8.758;2023-04-24T03:08:19;11.20;99.90
28023;DHT22;67403;50.104;8.758;2023-04-24T03:10:46;11.20;99.90
28023;DHT22;67403;50.104;8.758;2023-04-24T03:13:13;11.20;99.90
28023;DHT22;67403;50.104;8.758;2023-04-24T03:15:40;11.20;99.90
28023;DHT22;67403;50.104;8.758;2023-04-24T03:18:07;11.10;99.90
28023;DHT22;67403;50.104;8.758;2023-04-24T03:20:34;11.10;99.90
28023;DHT22;67403;50.104;8.758;2023-04-24T03:23:04;11.10;99.90
28023;DHT22;67403;50.104;8.758;2023-04-24T03:25:31;11.10;99.90
28023;DHT22;67403;50.104;8.758;2023-04-24T03:27:57;11.10;99.90
28023;DHT22;67403;50.104;8.758;2023-04-24T03:30:24;11.10;99.90
28023;DHT22;67403;50.104;8.758;2023-04-24T03:32:51;11.10;99.90
28023;DHT22;67403;50.104;8.758;2023-04-24T03:35:18;11.00;99.90
28023;DHT22;67403;50.104;8.758;2023-04-24T03:37:46;10.90;99.90
28023;DHT22;67403;50.104;8.758;2023-04-24T03:40:15;10.90;99.90
28023;DHT22;67403;50.104;8.758;2023-04-24T03:42:42;10.90;99.90
28023;DHT22;67403;50.104;8.758;2023-04-24T03:45:09;10.90;99.90
28023;DHT22;67403;50.104;8.758;2023-04-24T03:47:36;10.90;99.90
28023;DHT22;67403;50.104;8.758;2023-04-24T03:50:04;10.80;99.90
28023;DHT22;67403;50.104;8.758;2023-04-24T03:52:31;10.80;99.90
28023;DHT22;67403;50.104;8.758;2023-04-24T03:54:57;10.90;99.90
28023;DHT22;67403;50.104;8.758;2023-04-24T03:57:26;10.80;99.90
28023;DHT22;67403;50.104;8.758;2023-04-24T03:59:52;10.90;99.90
28023;DHT22;67403;50.104;8.758;2023-04-24T04:02:20;10.80;99.90
28023;DHT22;67403;50.104;8.758;2023-04-24T04:04:47;10.70;99.90
28023;DHT22;67403;50.104;8.758;2023-04-24T04:07:13;10.70;99.90
28023;DHT22;67403;50.104;8.758;2023-04-24T04:09:40;10.60;99.90
28023;DHT22;67403;50.104;8.758;2023-04-24T04:12:07;10.60;99.90
28023;DHT22;67403;50.104;8.758;2023-04-24T04:14:35;10.50;99.90
28023;DHT22;67403;50.104;8.758;2023-04-24T04:17:02;10.60;99.90
28023;DHT22;67403;50.104;8.758;2023-04-24T04:19:29;10.60;99.90
28023;DHT22;67403;50.104;8.758;2023-04-24T04:21:56;10.60;99.90
28023;DHT22;67403;50.104;8.758;2023-04-24T04:24:23;10.60;99.90
28023;DHT22;67403;50.104;8.758;2023-04-24T04:26:50;10.50;99.90
28023;DHT22;67403;50.104;8.758;2023-04-24T04:29:17;10.50;99.90
28023;DHT22;67403;50.104;8.758;2023-04-24T04:31:46;10.50;99.90
28023;DHT22;67403;50.104;8.758;2023-04-24T04:34:13;10.60;99.90
28023;DHT22;67403;50.104;8.758;2023-04-24T04:36:40;10.50;99.90
28023;DHT22;67403;50.104;8.758;2023-04-24T04:39:09;10.50;99.90
28023;DHT22;67403;50.104;8.758;2023-04-24T04:41:36;10.40;99.90
28023;DHT22;67403;50.104;8.758;2023-04-24T04:44:03;10.40;99.90
28023;DHT22;67403;50.104;8.758;2023-04-24T04:46:31;10.40;99.90
28023;DHT22;67403;50.104;8.758;2023-04-24T04:49:01;10.30;99.90
28023;DHT22;67403;50.104;8.758;2023-04-24T04:51:28;10.30;99.90
28023;DHT22;67403;50.104;8.758;2023-04-24T04:53:55;10.30;99.90
28023;DHT22;67403;50.104;8.758;2023-04-24T04:56:22;10.40;99.90
28023;DHT22;67403;50.104;8.758;2023-04-24T04:58:49;10.40;99.90
28023;DHT22;67403;50.104;8.758;2023-04-24T05:01:16;10.40;99.90
28023;DHT22;67403;50.104;8.758;2023-04-24T05:03:43;10.30;99.90
28023;DHT22;67403;50.104;8.758;2023-04-24T05:06:11;10.30;99.90
28023;DHT22;67403;50.104;8.758;2023-04-24T05:08:38;10.30;99.90
28023;DHT22;67403;50.104;8.758;2023-04-24T05:11:05;10.20;99.90
28023;DHT22;67403;50.104;8.758;2023-04-24T05:13:32;10.40;99.90
28023;DHT22;67403;50.104;8.758;2023-04-24T05:15:59;10.40;99.90
28023;DHT22;67403;50.104;8.758;2023-04-24T05:18:26;10.50;99.90
28023;DHT22;67403;50.104;8.758;2023-04-24T05:20:53;10.60;99.90
28023;DHT22;67403;50.104;8.758;2023-04-24T05:23:21;10.60;99.90
28023;DHT22;67403;50.104;8.758;2023-04-24T05:25:48;10.80;99.90
28023;DHT22;67403;50.104;8.758;2023-04-24T05:28:15;10.80;99.90
28023;DHT22;67403;50.104;8.758;2023-04-24T05:30:42;10.80;99.90
28023;DHT22;67403;50.104;8.758;2023-04-24T05:33:09;10.70;99.90
28023;DHT22;67403;50.104;8.758;2023-04-24T05:35:36;10.70;99.90
28023;DHT22;67403;50.104;8.758;2023-04-24T05:38:03;10.70;99.90
28023;DHT22;67403;50.104;8.758;2023-04-24T05:40:31;10.70;99.90
28023;DHT22;67403;50.104;8.758;2023-04-24T05:42:58;10.80;99.90
28023;DHT22;67403;50.104;8.758;2023-04-24T05:45:25;10.80;99.90
28023;DHT22;67403;50.104;8.758;2023-04-24T05:47:52;10.90;99.90
28023;DHT22;67403;50.104;8.758;2023-04-24T05:50:19;10.90;99.90
28023;DHT22;67403;50.104;8.758;2023-04-24T05:52:46;10.90;99.90
28023;DHT22;67403;50.104;8.758;2023-04-24T05:55:13;10.90;99.90
28023;DHT22;67403;50.104;8.758;2023-04-24T05:57:44;11.00;99.90
28023;DHT22;67403;50.104;8.758;2023-04-24T06:00:12;11.00;99.90
28023;DHT22;67403;50.104;8.758;2023-04-24T06:02:39;11.10;99.90
28023;DHT22;67403;50.104;8.758;2023-04-24T06:05:06;11.10;99.90
28023;DHT22;67403;50.104;8.758;2023-04-24T06:07:35;11.10;99.90
28023;DHT22;67403;50.104;8.758;2023-04-24T06:10:02;11.10;99.90
28023;DHT22;67403;50.104;8.758;2023-04-24T06:12:29;11.30;99.90
28023;DHT22;67403;50.104;8.758;2023-04-24T06:14:58;11.30;99.90
28023;DHT22;67403;50.104;8.758;2023-04-24T06:17:26;11.40;99.90
28023;DHT22;67403;50.104;8.758;2023-04-24T06:19:52;11.40;99.90
28023;DHT22;67403;50.104;8.758;2023-04-24T06:22:19;11.20;99.90
28023;DHT22;67403;50.104;8.758;2023-04-24T06:24:46;11.20;99.90
28023;DHT22;67403;50.104;8.758;2023-04-24T06:27:14;11.10;99.90
28023;DHT22;67403;50.104;8.758;2023-04-24T06:29:41;11.10;99.90
28023;DHT22;67403;50.104;8.758;2023-04-24T06:32:09;11.00;99.90
28023;DHT22;67403;50.104;8.758;2023-04-24T06:34:36;11.00;99.90
28023;DHT22;67403;50.104;8.758;2023-04-24T06:37:02;10.90;99.90
28023;DHT22;67403;50.104;8.758;2023-04-24T06:39:29;11.00;99.90
28023;DHT22;67403;50.104;8.758;2023-04-24T06:41:56;11.30;99.90
28023;DHT22;67403;50.104;8.758;2023-04-24T06:44:23;11.40;99.90
28023;DHT22;67403;50.104;8.758;2023-04-24T06:46:50;11.60;99.90
28023;DHT22;67403;50.104;8.758;2023-04-24T06:49:18;11.60;99.90
28023;DHT22;67403;50.104;8.758;2023-04-24T06:51:45;11.30;99.90
28023;DHT22;67403;50.104;8.758;2023-04-24T06:54:12;11.30;99.90
28023;DHT22;67403;50.104;8.758;2023-04-24T06:56:39;11.30;99.90
28023;DHT22;67403;50.104;8.758;2023-04-24T06:59:06;11.30;99.90
28023;DHT22;67403;50.104;8.758;2023-04-24T07:01:33;11.30;99.90
28023;DHT22;67403;50.104;8.758;2023-04-24T07:04:00;11.50;99.90
28023;DHT22;67403;50.104;8.758;2023-04-24T07:06:28;11.40;99.90
28023;DHT22;67403;50.104;8.758;2023-04-24T07:08:57;11.40;99.90
28023;DHT22;67403;50.104;8.758;2023-04-24T07:11:24;11.40;99.90
28023;DHT22;67403;50.104;8.758;2023-04-24T07:13:54;11.50;99.90
28023;DHT22;67403;50.104;8.758;2023-04-24T07:16:21;11.30;99.90
28023;DHT22;67403;50.104;8.758;2023-04-24T07:18:49;11.40;99.90
28023;DHT22;67403;50.104;8.758;2023-04-24T07:21:15;11.60;99.90
28023;DHT22;67403;50.104;8.758;2023-04-24T07:23:44;11.60;99.90
28023;DHT22;67403;50.104;8.758;2023-04-24T07:26:11;11.70;99.90
28023;DHT22;67403;50.104;8.758;2023-04-24T07:28:37;11.80;99.90
28023;DHT22;67403;50.104;8.758;2023-04-24T07:31:05;11.80;99.90
28023;DHT22;67403;50.104;8.758;2023-04-24T07:33:32;11.80;99.90
28023;DHT22;67403;50.104;8.758;2023-04-24T07:35:58;11.80;99.90
28023;DHT22;67403;50.104;8.758;2023-04-24T07:38:25;11.90;99.90
28023;DHT22;67403;50.104;8.758;2023-04-24T07:40:54;11.60;99.90
28023;DHT22;67403;50.104;8.758;2023-04-24T07:43:21;11.80;99.90
28023;DHT22;67403;50.104;8.758;2023-04-24T07:45:49;12.10;99.90
28023;DHT22;67403;50.104;8.758;2023-04-24T07:48:16;12.10;99.90
28023;DHT22;67403;50.104;8.758;2023-04-24T07:50:43;11.90;99.90
28023;DHT22;67403;50.104;8.758;2023-04-24T07:53:10;11.70;99.90
28023;DHT22;67403;50.104;8.758;2023-04-24T07:55:37;11.90;99.90
28023;DHT22;67403;50.104;8.758;2023-04-24T07:58:05;12.20;99.90
28023;DHT22;67403;50.104;8.758;2023-04-24T08:00:33;12.70;99.90
28023;DHT22;67403;50.104;8.758;2023-04-24T08:03:00;12.90;99.90
28023;DHT22;67403;50.104;8.758;2023-04-24T08:05:27;12.70;99.90
28023;DHT22;67403;50.104;8.758;2023-04-24T08:07:54;12.60;99.90
28023;DHT22;67403;50.104;8.758;2023-04-24T08:10:22;12.40;99.90
28023;DHT22;67403;50.104;8.758;2023-04-24T08:12:49;12.40;99.90
28023;DHT22;67403;50.104;8.758;2023-04-24T08:15:18;12.40;99.90
28023;DHT22;67403;50.104;8.758;2023-04-24T08:17:44;12.30;99.90
28023;DHT22;67403;50.104;8.758;2023-04-24T08:20:12;12.40;99.90
28023;DHT22;67403;50.104;8.758;2023-04-24T08:22:40;12.70;99.90
28023;DHT22;67403;50.104;8.758;2023-04-24T08:25:07;12.70;99.90
28023;DHT22;67403;50.104;8.758;2023-04-24T08:27:34;12.80;99.90
28023;DHT22;67403;50.104;8.758;2023-04-24T08:30:03;12.60;99.90
28023;DHT22;67403;50.104;8.758;2023-04-24T08:32:31;12.40;99.90
28023;DHT22;67403;50.104;8.758;2023-04-24T08:34:59;12.40;99.90
28023;DHT22;67403;50.104;8.758;2023-04-24T08:37:26;12.60;99.90
28023;DHT22;67403;50.104;8.758;2023-04-24T08:39:54;12.70;99.90
28023;DHT22;67403;50.104;8.758;2023-04-24T08:42:21;13.10;99.90
28023;DHT22;67403;50.104;8.758;2023-04-24T08:44:49;13.50;99.90
28023;DHT22;67403;50.104;8.758;2023-04-24T08:47:16;13.50;99.90
28023;DHT22;67403;50.104;8.758;2023-04-24T08:49:45;13.70;99.90
28023;DHT22;67403;50.104;8.758;2023-04-24T08:52:15;14.10;99.90
28023;DHT22;67403;50.104;8.758;2023-04-24T08:54:43;14.50;99.90
28023;DHT22;67403;50.104;8.758;2023-04-24T08:57:11;14.40;99.90
28023;DHT22;67403;50.104;8.758;2023-04-24T08:59:40;14.20;99.90
28023;DHT22;67403;50.104;8.758;2023-04-24T09:02:10;14.10;99.90
28023;DHT22;67403;50.104;8.758;2023-04-24T09:04:37;13.40;99.90
28023;DHT22;67403;50.104;8.758;2023-04-24T09:07:06;13.20;99.90
28023;DHT22;67403;50.104;8.758;2023-04-24T09:09:34;12.90;99.90
28023;DHT22;67403;50.104;8.758;2023-04-24T09:12:02;12.80;99.90
28023;DHT22;67403;50.104;8.758;2023-04-24T09:14:29;12.70;99.90
28023;DHT22;67403;50.104;8.758;2023-04-24T09:16:57;12.40;99.90
28023;DHT22;67403;50.104;8.758;2023-04-24T09:19:24;12.40;99.90
28023;DHT22;67403;50.104;8.758;2023-04-24T09:21:52;12.40;99.90
28023;DHT22;67403;50.104;8.758;2023-04-24T09:24:21;12.30;99.90
28023;DHT22;67403;50.104;8.758;2023-04-24T09:26:55;12.30;99.90
28023;DHT22;67403;50.104;8.758;2023-04-24T09:29:23;12.20;99.90
28023;DHT22;67403;50.104;8.758;2023-04-24T09:31:51;12.20;99.90
28023;DHT22;67403;50.104;8.758;2023-04-24T09:34:21;12.20;99.90
28023;DHT22;67403;50.104;8.758;2023-04-24T09:36:49;12.20;99.90
28023;DHT22;67403;50.104;8.758;2023-04-24T09:39:17;12.20;99.90
28023;DHT22;67403;50.104;8.758;2023-04-24T09:41:48;12.20;99.90
28023;DHT22;67403;50.104;8.758;2023-04-24T09:44:17;12.30;99.90
28023;DHT22;67403;50.104;8.758;2023-04-24T09:46:48;12.30;99.90
28023;DHT22;67403;50.104;8.758;2023-04-24T09:49:20;12.20;99.90
28023;DHT22;67403;50.104;8.758;2023-04-24T09:51:47;12.10;99.90
28023;DHT22;67403;50.104;8.758;2023-04-24T09:54:15;11.80;99.90
28023;DHT22;67403;50.104;8.758;2023-04-24T09:56:48;11.80;99.90
28023;DHT22;67403;50.104;8.758;2023-04-24T09:59:16;11.80;99.90
28023;DHT22;67403;50.104;8.758;2023-04-24T10:01:43;11.80;99.90
28023;DHT22;67403;50.104;8.758;2023-04-24T10:04:18;11.90;99.90
28023;DHT22;67403;50.104;8.758;2023-04-24T10:06:46;11.80;99.90
28023;DHT22;67403;50.104;8.758;2023-04-24T10:09:14;11.90;99.90
28023;DHT22;67403;50.104;8.758;2023-04-24T10:11:43;12.00;99.90
28023;DHT22;67403;50.104;8.758;2023-04-24T10:14:19;12.30;99.90
28023;DHT22;67403;50.104;8.758;2023-04-24T10:16:47;12.30;99.90
28023;DHT22;67403;50.104;8.758;2023-04-24T10:19:15;12.40;99.90
28023;DHT22;67403;50.104;8.758;2023-04-24T10:21:44;12.20;99.90
28023;DHT22;67403;50.104;8.758;2023-04-24T10:24:13;12.20;99.90
28023;DHT22;67403;50.104;8.758;2023-04-24T10:26:41;12.20;99.90
28023;DHT22;67403;50.104;8.758;2023-04-24T10:29:08;12.10;99.90
28023;DHT22;67403;50.104;8.758;2023-04-24T10:31:37;11.90;99.90
28023;DHT22;67403;50.104;8.758;2023-04-24T10:34:06;11.90;99.90
28023;DHT22;67403;50.104;8.758;2023-04-24T10:36:34;11.90;99.90
28023;DHT22;67403;50.104;8.758;2023-04-24T10:39:03;11.90;99.90
28023;DHT22;67403;50.104;8.758;2023-04-24T10:41:32;11.80;99.90
28023;DHT22;67403;50.104;8.758;2023-04-24T10:44:07;11.70;99.90
28023;DHT22;67403;50.104;8.758;2023-04-24T10:46:37;11.50;99.90
28023;DHT22;67403;50.104;8.758;2023-04-24T10:49:05;11.50;99.90
28023;DHT22;67403;50.104;8.758;2023-04-24T10:51:48;11.60;99.90
28023;DHT22;67403;50.104;8.758;2023-04-24T10:54:25;11.50;99.90
28023;DHT22;67403;50.104;8.758;2023-04-24T10:56:53;11.50;99.90
28023;DHT22;67403;50.104;8.758;2023-04-24T10:59:24;11.50;99.90
28023;DHT22;67403;50.104;8.758;2023-04-24T11:01:56;11.80;99.90
28023;DHT22;67403;50.104;8.758;2023-04-24T11:04:29;11.80;99.90
28023;DHT22;67403;50.104;8.758;2023-04-24T11:06:57;11.70;99.90
28023;DHT22;67403;50.104;8.758;2023-04-24T11:09:26;11.50;99.90
28023;DHT22;67403;50.104;8.758;2023-04-24T11:12:03;11.60;99.90
28023;DHT22;67403;50.104;8.758;2023-04-24T11:15:02;12.30;99.90
28023;DHT22;67403;50.104;8.758;2023-04-24T11:17:32;12.90;99.90
28023;DHT22;67403;50.104;8.758;2023-04-24T11:20:03;14.00;99.90
28023;DHT22;67403;50.104;8.758;2023-04-24T11:22:33;14.50;99.90
28023;DHT22;67403;50.104;8.758;2023-04-24T11:25:02;14.60;99.90
28023;DHT22;67403;50.104;8.758;2023-04-24T11:27:30;14.60;99.90
28023;DHT22;67403;50.104;8.758;2023-04-24T11:30:00;14.60;99.90
28023;DHT22;67403;50.104;8.758;2023-04-24T11:32:28;15.00;99.90
28023;DHT22;67403;50.104;8.758;2023-04-24T11:34:58;15.70;99.90
28023;DHT22;67403;50.104;8.758;2023-04-24T11:37:28;15.70;99.90
28023;DHT22;67403;50.104;8.758;2023-04-24T11:39:56;15.50;99.90
28023;DHT22;67403;50.104;8.758;2023-04-24T11:42:23;15.60;99.90
28023;DHT22;67403;50.104;8.758;2023-04-24T11:44:52;16.20;99.90
28023;DHT22;67403;50.104;8.758;2023-04-24T11:47:19;16.60;99.90
28023;DHT22;67403;50.104;8.758;2023-04-24T11:49:46;16.30;99.90
28023;DHT22;67403;50.104;8.758;2023-04-24T11:52:19;15.60;99.90
28023;DHT22;67403;50.104;8.758;2023-04-24T11:54:49;17.00;99.90
28023;DHT22;67403;50.104;8.758;2023-04-24T11:57:16;19.00;99.90
28023;DHT22;67403;50.104;8.758;2023-04-24T11:59:45;19.30;99.90
28023;DHT22;67403;50.104;8.758;2023-04-24T12:02:20;18.40;99.90
28023;DHT22;67403;50.104;8.758;2023-04-24T12:04:48;18.80;99.90
28023;DHT22;67403;50.104;8.758;2023-04-24T12:07:15;18.90;99.90
28023;DHT22;67403;50.104;8.758;2023-04-24T12:09:45;18.00;99.90
28023;DHT22;67403;50.104;8.758;2023-04-24T12:12:13;16.80;99.90
28023;DHT22;67403;50.104;8.758;2023-04-24T12:14:45;16.30;99.90
28023;DHT22;67403;50.104;8.758;2023-04-24T12:17:13;16.00;99.90
28023;DHT22;67403;50.104;8.758;2023-04-24T12:19:45;15.70;99.90
28023;DHT22;67403;50.104;8.758;2023-04-24T12:22:13;16.50;99.90
28023;DHT22;67403;50.104;8.758;2023-04-24T12:24:57;17.30;99.90
28023;DHT22;67403;50.104;8.758;2023-04-24T12:27:24;17.40;99.90
28023;DHT22;67403;50.104;8.758;2023-04-24T12:29:52;16.90;99.90
28023;DHT22;67403;50.104;8.758;2023-04-24T12:32:19;16.10;99.90
28023;DHT22;67403;50.104;8.758;2023-04-24T12:34:46;15.00;99.90
28023;DHT22;67403;50.104;8.758;2023-04-24T12:37:13;14.60;99.90
28023;DHT22;67403;50.104;8.758;2023-04-24T12:39:51;14.20;99.90
28023;DHT22;67403;50.104;8.758;2023-04-24T12:42:27;14.10;99.90
28023;DHT22;67403;50.104;8.758;2023-04-24T12:44:56;14.40;99.90
28023;DHT22;67403;50.104;8.758;2023-04-24T12:47:23;14.30;99.90
28023;DHT22;67403;50.104;8.758;2023-04-24T12:49:50;13.70;99.90
28023;DHT22;67403;50.104;8.758;2023-04-24T12:52:18;14.00;99.90
28023;DHT22;67403;50.104;8.758;2023-04-24T12:54:45;14.20;99.90
28023;DHT22;67403;50.104;8.758;2023-04-24T12:57:12;14.10;99.90
28023;DHT22;67403;50.104;8.758;2023-04-24T12:59:40;13.60;99.90
28023;DHT22;67403;50.104;8.758;2023-04-24T13:02:07;14.20;99.90
28023;DHT22;67403;50.104;8.758;2023-04-24T13:04:35;15.90;99.90
28023;DHT22;67403;50.104;8.758;2023-04-24T13:07:03;17.20;99.90
28023;DHT22;67403;50.104;8.758;2023-04-24T13:09:30;18.60;99.90
28023;DHT22;67403;50.104;8.758;2023-04-24T13:11:57;19.50;99.90
28023;DHT22;67403;50.104;8.758;2023-04-24T13:14:24;19.60;99.90
28023;DHT22;67403;50.104;8.758;2023-04-24T13:16:52;19.30;99.90
28023;DHT22;67403;50.104;8.758;2023-04-24T13:19:19;20.60;99.90
28023;DHT22;67403;50.104;8.758;2023-04-24T13:21:46;19.40;99.90
28023;DHT22;67403;50.104;8.758;2023-04-24T13:24:12;20.20;99.90
28023;DHT22;67403;50.104;8.758;2023-04-24T13:26:41;21.00;99.90
28023;DHT22;67403;50.104;8.758;2023-04-24T13:29:08;21.40;99.90
28023;DHT22;67403;50.104;8.758;2023-04-24T13:31:35;20.70;99.90
28023;DHT22;67403;50.104;8.758;2023-04-24T13:34:03;19.40;99.90
28023;DHT22;67403;50.104;8.758;2023-04-24T13:36:30;20.00;99.90
28023;DHT22;67403;50.104;8.758;2023-04-24T13:38:57;20.20;99.90
28023;DHT22;67403;50.104;8.758;2023-04-24T13:41:24;20.00;98.90
28023;DHT22;67403;50.104;8.758;2023-04-24T13:43:51;18.00;99.90
28023;DHT22;67403;50.104;8.758;2023-04-24T13:46:18;16.30;99.90
28023;DHT22;67403;50.104;8.758;2023-04-24T13:48:45;15.50;99.90
28023;DHT22;67403;50.104;8.758;2023-04-24T13:51:13;14.60;99.90
28023;DHT22;67403;50.104;8.758;2023-04-24T13:53:40;14.30;99.90
28023;DHT22;67403;50.104;8.758;2023-04-24T13:56:07;14.10;99.90
28023;DHT22;67403;50.104;8.758;2023-04-24T13:58:34;14.30;99.90
28023;DHT22;67403;50.104;8.758;2023-04-24T14:01:02;14.10;99.90
28023;DHT22;67403;50.104;8.758;2023-04-24T14:03:29;14.40;99.90
28023;DHT22;67403;50.104;8.758;2023-04-24T14:05:56;14.60;99.90
28023;DHT22;67403;50.104;8.758;2023-04-24T14:08:24;14.50;99.90
28023;DHT22;67403;50.104;8.758;2023-04-24T14:10:52;14.40;99.90
28023;DHT22;67403;50.104;8.758;2023-04-24T14:13:19;14.20;99.90
28023;DHT22;67403;50.104;8.758;2023-04-24T14:15:46;14.40;99.90
28023;DHT22;67403;50.104;8.758;2023-04-24T14:18:13;14.70;99.90
28023;DHT22;67403;50.104;8.758;2023-04-24T14:20:40;15.20;99.90
28023;DHT22;67403;50.104;8.758;2023-04-24T14:23:07;16.40;99.90
28023;DHT22;67403;50.104;8.758;2023-04-24T14:25:35;18.80;99.90
28023;DHT22;67403;50.104;8.758;2023-04-24T14:28:02;20.50;99.90
28023;DHT22;67403;50.104;8.758;2023-04-24T14:30:29;20.20;99.90
28023;DHT22;67403;50.104;8.758;2023-04-24T14:32:56;19.20;99.90
28023;DHT22;67403;50.104;8.758;2023-04-24T14:35:23;18.90;99.90
28023;DHT22;67403;50.104;8.758;2023-04-24T14:37:50;20.20;99.90
28023;DHT22;67403;50.104;8.758;2023-04-24T14:40:17;20.60;97.40
28023;DHT22;67403;50.104;8.758;2023-04-24T14:42:45;21.00;95.90
28023;DHT22;67403;50.104;8.758;2023-04-24T14:45:12;19.10;98.90
28023;DHT22;67403;50.104;8.758;2023-04-24T14:47:39;18.20;99.90
28023;DHT22;67403;50.104;8.758;2023-04-24T14:50:07;17.40;99.90
28023;DHT22;67403;50.104;8.758;2023-04-24T14:52:34;16.10;99.90
28023;DHT22;67403;50.104;8.758;2023-04-24T14:55:01;15.40;99.90
28023;DHT22;67403;50.104;8.758;2023-04-24T14:57:28;14.80;99.90
28023;DHT22;67403;50.104;8.758;2023-04-24T14:59:57;14.50;99.90
28023;DHT22;67403;50.104;8.758;2023-04-24T15:02:24;14.30;99.90
28023;DHT22;67403;50.104;8.758;2023-04-24T15:04:50;13.90;99.90
28023;DHT22;67403;50.104;8.758;2023-04-24T15:07:17;13.60;99.90
28023;DHT22;67403;50.104;8.758;2023-04-24T15:09:44;13.60;99.90
28023;DHT22;67403;50.104;8.758;2023-04-24T15:12:12;13.60;99.90
28023;DHT22;67403;50.104;8.758;2023-04-24T15:14:40;13.60;99.90
28023;DHT22;67403;50.104;8.758;2023-04-24T15:17:08;13.80;99.90
28023;DHT22;67403;50.104;8.758;2023-04-24T15:19:35;14.00;99.90
28023;DHT22;67403;50.104;8.758;2023-04-24T15:22:02;14.00;99.90
28023;DHT22;67403;50.104;8.758;2023-04-24T15:24:29;13.90;99.90
28023;DHT22;67403;50.104;8.758;2023-04-24T15:26:55;13.70;99.90
28023;DHT22;67403;50.104;8.758;2023-04-24T15:31:59;13.50;99.90
28023;DHT22;67403;50.104;8.758;2023-04-24T15:34:28;13.60;99.90
28023;DHT22;67403;50.104;8.758;2023-04-24T15:36:54;13.70;99.90